createdAt,value
2019-03-04T00:03:18.245Z,9.63
2019-03-04T00:08:26.061Z,9.30
2019-03-04T00:13:51.540Z,7.00
2019-03-04T00:18:58.823Z,7.83
2019-03-04T00:24:05.779Z,7.63
2019-03-04T00:29:13.582Z,8.37
2019-03-04T00:34:20.537Z,9.20
2019-03-04T00:39:27.845Z,10.30
2019-03-04T00:44:36.635Z,9.87
2019-03-04T00:49:43.858Z,11.30
2019-03-04T00:54:50.030Z,10.13
2019-03-04T01:00:16.184Z,9.87
2019-03-04T01:05:24.457Z,10.10
2019-03-04T01:10:31.449Z,11.30
2019-03-04T01:15:38.617Z,7.03
2019-03-04T01:20:45.121Z,7.20
2019-03-04T01:25:52.256Z,8.93
2019-03-04T01:31:00.018Z,9.20
2019-03-04T01:36:07.105Z,8.03
2019-03-04T01:41:14.205Z,5.83
2019-03-04T01:46:21.281Z,5.80
2019-03-04T01:51:30.253Z,7.93
2019-03-04T01:56:37.564Z,11.73
2019-03-04T02:01:44.453Z,6.13
2019-03-04T02:06:50.891Z,8.97
2019-03-04T02:11:57.606Z,10.17
2019-03-04T02:17:04.728Z,12.80
2019-03-04T02:22:15.680Z,9.07
2019-03-04T02:27:22.769Z,9.47
2019-03-04T02:32:31.502Z,9.50
2019-03-04T02:37:38.796Z,9.07
2019-03-04T02:42:45.003Z,10.03
2019-03-04T02:47:51.233Z,7.90
2019-03-04T02:53:16.633Z,10.47
2019-03-04T02:58:23.740Z,6.23
2019-03-04T03:03:31.909Z,6.60
2019-03-04T03:08:40.660Z,11.93
2019-03-04T03:13:46.942Z,8.93
2019-03-04T03:18:53.151Z,10.83
2019-03-04T03:24:00.461Z,8.97
2019-03-04T03:29:07.497Z,6.00
2019-03-04T03:34:15.493Z,8.90
2019-03-04T03:39:22.360Z,8.33
2019-03-04T03:44:32.540Z,6.10
2019-03-04T03:49:39.594Z,5.27
2019-03-04T03:54:45.694Z,4.93
2019-03-04T03:59:51.994Z,5.33
2019-03-04T04:04:59.416Z,6.63
2019-03-04T04:10:26.624Z,5.13
2019-03-04T04:15:33.775Z,5.50
2019-03-04T04:20:40.438Z,16.53
2019-03-04T04:25:46.779Z,6.07
2019-03-04T04:30:53.921Z,4.57
2019-03-04T04:36:01.280Z,8.20
2019-03-04T04:41:08.162Z,6.23
2019-03-04T04:46:15.637Z,5.97
2019-03-04T04:51:22.633Z,5.00
2019-03-04T04:56:31.301Z,7.50
2019-03-04T05:01:44.036Z,5.60
2019-03-04T05:06:50.078Z,6.00
2019-03-04T05:12:15.377Z,7.53
2019-03-04T05:17:22.702Z,6.00
2019-03-04T05:22:31.014Z,2.63
2019-03-04T05:27:37.968Z,5.83
2019-03-04T05:32:44.285Z,5.80
2019-03-04T05:37:50.550Z,4.83
2019-03-04T05:42:56.686Z,7.93
2019-03-04T05:48:03.945Z,5.10
2019-03-04T05:53:10.569Z,3.97
2019-03-04T05:58:17.171Z,3.73
2019-03-04T06:03:24.560Z,5.67
2019-03-04T06:08:31.291Z,4.43
2019-03-04T06:13:38.392Z,3.93
2019-03-04T06:18:46.072Z,5.00
2019-03-04T06:23:52.974Z,7.00
2019-03-04T06:28:59.891Z,4.33
2019-03-04T06:34:07.740Z,4.27
2019-03-04T06:39:14.310Z,7.97
2019-03-04T06:44:20.962Z,4.07
2019-03-04T06:49:29.245Z,3.17
2019-03-04T06:54:55.063Z,4.43
2019-03-04T07:00:25.377Z,5.07
2019-03-04T07:05:51.176Z,3.60
2019-03-04T07:10:57.280Z,4.37
2019-03-04T07:16:04.212Z,4.37
2019-03-04T07:21:11.249Z,4.40
2019-03-04T07:26:23.213Z,3.17
2019-03-04T07:31:30.195Z,4.17
2019-03-04T07:36:37.060Z,5.70
2019-03-04T07:41:43.772Z,4.87
2019-03-04T07:46:49.911Z,4.37
2019-03-04T07:51:56.140Z,3.13
2019-03-04T07:57:02.222Z,6.30
2019-03-04T08:02:09.467Z,3.73
2019-03-04T08:07:37.657Z,5.67
2019-03-04T08:12:57.194Z,3.73
2019-03-04T08:18:04.745Z,5.97
2019-03-04T08:23:11.659Z,5.97
2019-03-04T08:28:18.733Z,5.00
2019-03-04T08:33:25.721Z,3.47
2019-03-04T08:38:32.589Z,3.60
2019-03-04T08:43:39.516Z,6.37
2019-03-04T08:48:45.541Z,5.97
2019-03-04T08:53:52.453Z,5.60
2019-03-04T08:58:58.446Z,3.40
2019-03-04T09:04:04.558Z,5.33
2019-03-04T09:09:11.801Z,4.33
2019-03-04T09:14:18.956Z,6.63
2019-03-04T09:19:26.465Z,2.93
2019-03-04T09:24:33.549Z,3.23
2019-03-04T09:29:40.331Z,5.80
2019-03-04T09:34:47.453Z,6.33
2019-03-04T09:39:53.550Z,5.37
2019-03-04T09:44:59.657Z,4.20
2019-03-04T09:50:11.809Z,3.97
2019-03-04T09:55:20.349Z,4.30
2019-03-04T10:00:39.999Z,8.50
2019-03-04T10:06:12.678Z,3.23
2019-03-04T10:11:56.536Z,7.63
2019-03-04T10:17:30.636Z,2.47
2019-03-04T10:22:44.647Z,3.70
2019-03-04T10:28:13.831Z,5.60
2019-03-04T10:33:42.298Z,8.57
2019-03-04T10:39:01.641Z,1.87
2019-03-04T10:44:17.093Z,2.93
2019-03-04T10:49:24.986Z,5.10
2019-03-04T10:54:32.070Z,2.30
2019-03-04T10:59:38.751Z,1.77
2019-03-04T11:04:44.831Z,4.43
2019-03-04T11:09:50.880Z,3.20
2019-03-04T11:14:57.967Z,2.97
2019-03-04T11:20:07.710Z,4.00
2019-03-04T11:25:15.387Z,3.13
2019-03-04T11:30:35.444Z,1.43
2019-03-04T11:35:42.229Z,3.03
2019-03-04T11:40:50.099Z,2.00
2019-03-04T11:45:57.619Z,1.40
2019-03-04T11:51:05.981Z,4.97
2019-03-04T11:56:12.899Z,2.87
2019-03-04T12:01:24.184Z,4.60
2019-03-04T12:06:30.924Z,1.20
2019-03-04T12:11:40.113Z,3.33
2019-03-04T12:16:46.381Z,3.73
2019-03-04T12:21:53.256Z,4.43
2019-03-04T12:26:59.369Z,2.27
2019-03-04T12:32:08.181Z,1.70
2019-03-04T12:37:15.361Z,1.63
2019-03-04T12:42:22.210Z,1.93
2019-03-04T12:47:29.277Z,3.07
2019-03-04T12:52:36.363Z,3.27
2019-03-04T12:57:43.816Z,3.03
2019-03-04T13:02:57.168Z,8.30
2019-03-04T13:07:58.704Z,5.57
2019-03-04T13:13:05.909Z,4.00
2019-03-04T13:18:14.610Z,3.47
2019-03-04T13:23:21.554Z,6.13
2019-03-04T13:28:28.464Z,2.27
2019-03-04T13:33:35.865Z,2.70
2019-03-04T13:38:43.885Z,3.50
2019-03-04T13:43:50.017Z,4.10
2019-03-04T13:48:56.129Z,3.33
2019-03-04T13:54:02.197Z,7.00
2019-03-04T13:59:10.501Z,3.43
2019-03-04T14:04:17.534Z,2.40
2019-03-04T14:09:24.816Z,3.73
2019-03-04T14:14:31.846Z,5.03
2019-03-04T14:19:38.944Z,3.43
2019-03-04T14:24:44.967Z,4.10
2019-03-04T14:29:51.086Z,3.60
2019-03-04T14:34:57.143Z,3.73
2019-03-04T14:40:04.768Z,2.23
2019-03-04T14:45:16.202Z,3.23
2019-03-04T14:50:23.404Z,1.80
2019-03-04T14:55:39.170Z,3.73
2019-03-04T15:00:48.355Z,4.53
2019-03-04T15:05:55.260Z,5.70
2019-03-04T15:11:01.422Z,7.63
2019-03-04T15:16:08.918Z,6.60
2019-03-04T15:21:27.948Z,3.43
2019-03-04T15:26:42.021Z,1.83
2019-03-04T15:31:44.754Z,3.73
2019-03-04T15:36:51.002Z,4.67
2019-03-04T15:41:58.065Z,3.40
2019-03-04T15:47:05.090Z,0.70
2019-03-04T15:52:11.945Z,2.93
2019-03-04T15:57:19.203Z,10.77
2019-03-04T16:02:26.182Z,9.67
2019-03-04T16:07:33.459Z,7.60
2019-03-04T16:12:41.451Z,4.97
2019-03-04T16:17:47.818Z,3.47
2019-03-04T16:22:56.659Z,5.10
2019-03-04T16:28:10.467Z,1.63
2019-03-04T16:33:24.121Z,4.30
2019-03-04T16:38:31.822Z,5.73
2019-03-04T16:43:39.475Z,4.70
2019-03-04T16:48:46.082Z,3.47
2019-03-04T16:53:53.089Z,2.93
2019-03-04T16:58:59.491Z,3.80
2019-03-04T17:04:05.691Z,3.03
2019-03-04T17:09:24.651Z,4.63
2019-03-04T17:14:33.654Z,4.63
2019-03-04T17:19:40.995Z,3.13
2019-03-04T17:24:46.940Z,6.00
2019-03-04T17:29:53.201Z,2.10
2019-03-04T17:34:59.362Z,7.37
2019-03-04T17:40:09.671Z,6.03
2019-03-04T17:45:26.834Z,4.60
2019-03-04T17:50:48.011Z,5.30
2019-03-04T17:55:54.259Z,2.97
2019-03-04T18:01:00.326Z,1.60
2019-03-04T18:06:07.123Z,1.40
2019-03-04T18:11:13.637Z,5.60
2019-03-04T18:16:20.190Z,2.90
2019-03-04T18:21:27.310Z,1.90
2019-03-04T18:26:38.292Z,2.93
2019-03-04T18:31:50.863Z,2.40
2019-03-04T18:37:27.937Z,3.20
2019-03-04T18:42:38.844Z,1.77
2019-03-04T18:48:35.084Z,4.73
2019-03-04T18:53:41.952Z,1.60
2019-03-04T18:58:49.518Z,1.87
2019-03-04T19:03:56.136Z,5.60
2019-03-04T19:09:02.134Z,9.93
2019-03-04T19:14:10.373Z,3.67
2019-03-04T19:19:17.232Z,4.67
2019-03-04T19:24:25.539Z,3.53
2019-03-04T19:29:32.639Z,4.37
2019-03-04T19:34:39.687Z,5.67
2019-03-04T19:40:06.641Z,4.13
2019-03-04T19:45:22.661Z,3.53
2019-03-04T19:50:29.821Z,7.40
2019-03-04T19:55:36.908Z,3.60
2019-03-04T20:00:44.406Z,5.23
2019-03-04T20:05:50.638Z,7.50
2019-03-04T20:10:56.847Z,8.47
2019-03-04T20:16:04.142Z,6.53
2019-03-04T20:21:11.770Z,8.73
2019-03-04T20:26:19.084Z,9.73
2019-03-04T20:31:25.791Z,14.60
2019-03-04T20:36:33.703Z,6.43
2019-03-04T20:41:43.485Z,8.17
2019-03-04T20:46:49.516Z,8.87
2019-03-04T20:51:56.571Z,6.93
2019-03-04T20:57:04.343Z,9.60
2019-03-04T21:02:10.989Z,12.03
2019-03-04T21:07:17.801Z,9.40
2019-03-04T21:12:25.990Z,7.23
2019-03-04T21:17:32.739Z,9.20
2019-03-04T21:22:40.665Z,14.17
2019-03-04T21:27:46.691Z,13.00
2019-03-04T21:32:54.655Z,11.13
2019-03-04T21:38:01.937Z,9.17
2019-03-04T21:43:32.754Z,9.17
2019-03-04T21:48:48.750Z,8.57
2019-03-04T21:53:55.829Z,8.80
2019-03-04T21:59:05.371Z,8.27
2019-03-04T22:04:31.290Z,10.73
2019-03-04T22:09:38.252Z,8.73
2019-03-04T22:14:45.181Z,10.43
2019-03-04T22:19:52.191Z,7.40
2019-03-04T22:24:58.204Z,7.63
2019-03-04T22:30:12.863Z,8.27
2019-03-04T22:35:19.943Z,10.37
2019-03-04T22:40:29.191Z,13.77
2019-03-04T22:45:35.783Z,11.00
2019-03-04T22:50:42.758Z,11.17
2019-03-04T22:55:48.731Z,6.93
2019-03-04T23:01:19.558Z,11.17
2019-03-04T23:06:36.151Z,9.13
2019-03-04T23:11:53.875Z,10.97
2019-03-04T23:17:00.238Z,10.20
2019-03-04T23:22:07.180Z,11.77
2019-03-04T23:27:13.809Z,8.00
2019-03-04T23:32:20.843Z,7.90
2019-03-04T23:37:28.000Z,5.43
2019-03-04T23:42:34.500Z,8.40
2019-03-04T23:47:40.984Z,7.17
2019-03-04T23:52:47.141Z,8.83
2019-03-04T23:57:54.021Z,8.97
